Polfoss — V2PN7 — position and weather

sailwx.info

Track history (hours):
 
Tides and Currents Weather Stations Pressure Air Temp Water Temp Dewpoint Dewpoint Depression Visibility Wind Speed Wind Dir Waves Ship Positions

Polfoss

Last reported at 2014-Dec-17 16:03 UTC. Time now 2014-Dec-19 00:36 UTC.
Position N 66°23' E 011°58'.

Length 82 m; draft 6.1 m.

Type: Cargo ship. MMSI: 305081000.

Date/timePositionNaut miles runAvg speedWind from/ knotsBaromVisibWave heightAir tempDewpointWater temp
2014-Dec-17 16:03N 66°23' E 011°58'713.4
2014-Dec-17 15:33N 66°29' E 012°05'1 1.1
2014-Dec-17 14:33N 66°30' E 012°06'5 5.1
2014-Dec-17 13:33N 66°32' E 012°18'10014.0
2014-Dec-17 06:25N 68°05' E 013°50'77 2.4
2014-Dec-15 22:22N 69°12' E 015°35'73 8.2
2014-Dec-15 13:31N 69°35' E 018°51'5 4.9
2014-Dec-15 12:33N 69°39' E 018°58'0 0.0
2014-Dec-15 11:33N 69°39' E 018°58'2 1.9
2014-Dec-15 10:33N 69°38' E 018°57'0 0.0
2014-Dec-15 09:33N 69°38' E 018°57'0 0.0
2014-Dec-15 08:33N 69°38' E 018°57'0 0.0
2014-Dec-15 07:33N 69°38' E 018°57'0 0.0
2014-Dec-15 06:33N 69°38' E 018°57'0 0.0
2014-Dec-15 05:33N 69°38' E 018°57'0 0.0
2014-Dec-15 04:33N 69°38' E 018°57'0 0.0
2014-Dec-15 03:33N 69°38' E 018°57'0 0.0
2014-Dec-15 02:33N 69°38' E 018°57'0 0.0
2014-Dec-15 01:33N 69°38' E 018°57'0 0.0
2014-Dec-15 00:33N 69°38' E 018°57'0 0.0
2014-Dec-14 23:33N 69°38' E 018°57'0 0.0
2014-Dec-14 22:33N 69°38' E 018°57'0 0.0
2014-Dec-14 21:33N 69°38' E 018°57'0 0.0
2014-Dec-14 20:33N 69°38' E 018°57'0 0.0
2014-Dec-14 19:33N 69°38' E 018°57'2 1.9
2014-Dec-14 18:34N 69°39' E 018°58'0 0.0
2014-Dec-14 17:33N 69°39' E 018°58'0 0.0
2014-Dec-14 16:33N 69°39' E 018°58'0 0.0
2014-Dec-14 15:33N 69°39' E 018°58'0 0.0
2014-Dec-14 14:33N 69°39' E 018°58'0 0.0
2014-Dec-14 13:33N 69°39' E 018°58'0 0.0
2014-Dec-14 12:33N 69°39' E 018°58'0 0.0
2014-Dec-14 11:33N 69°39' E 018°58'0 0.0
2014-Dec-14 10:33N 69°39' E 018°58'0 0.0
2014-Dec-14 09:33N 69°39' E 018°58'0 0.0
2014-Dec-14 08:33N 69°39' E 018°58'0 0.0
2014-Dec-14 07:33N 69°39' E 018°58'0 0.0
2014-Dec-14 06:33N 69°39' E 018°58'0 0.0
2014-Dec-14 05:33N 69°39' E 018°58'0 0.0
2014-Dec-14 04:33N 69°39' E 018°58'0 0.0
2014-Dec-14 03:33N 69°39' E 018°58'0 0.0
2014-Dec-14 02:33N 69°39' E 018°58'0 0.0
2014-Dec-14 01:33N 69°39' E 018°58'0 0.0
2014-Dec-14 00:33N 69°39' E 018°58'0 0.0
2014-Dec-13 23:33N 69°39' E 018°58'3 3.4
2014-Dec-13 22:34N 69°42' E 019°03'8313.7
2014-Dec-13 16:32N 70°28' E 022°25'1413.9
2014-Dec-13 15:33N 70°33' E 023°03'1313.3
2014-Dec-13 14:34N 70°38' E 023°40'0 0.1
2014-Dec-13 13:33N 70°38' E 023°40'  
2014-Dec-11 04:16N 70°44' E 023°36'6 8.1
2014-Dec-11 03:33N 70°38' E 023°40'1 1.1
2014-Dec-11 02:32N 70°38' E 023°36'1515.2
2014-Dec-11 01:33N 70°31' E 022°57'9114.6
2014-Dec-10 19:18N 69°45' E 019°05'6 8.3
2014-Dec-10 18:33N 69°39' E 018°58'2 1.9
2014-Dec-10 17:34N 69°38' E 018°57'155 6.7
2014-Dec-09 18:33N 67°42' E 014°15'1515.0
2014-Dec-09 17:33N 67°27' E 014°24'1413.8
2014-Dec-09 16:34N 67°15' E 014°11'1614.5
2014-Dec-09 15:25N 67°01' E 013°45'3013.9
2014-Dec-09 13:17N 66°36' E 013°04'1413.8
2014-Dec-09 12:17N 66°23' E 012°58'7014.1
2014-Dec-09 07:21N 65°18' E 011°59'1214.9
2014-Dec-09 06:34N 65°07' E 011°49'1414.3
2014-Dec-09 05:34N 64°56' E 011°26'1614.0
2014-Dec-09 04:26N 64°45' E 011°00'7610.9
2014-Dec-08 21:28N 63°40' E 009°29'  
Track history (hours):
 
Tides and Currents Weather Stations Pressure Air Temp Water Temp Dewpoint Dewpoint Depression Visibility Wind Speed Wind Dir Waves Ship Positions

Polfoss

Last reported at 2014-Dec-17 16:03 UTC. Time now 2014-Dec-19 00:36 UTC.
Position N 66°23' E 011°58'.

Length 82 m; draft 6.1 m.

Type: Cargo ship. MMSI: 305081000.

Date/timePositionNaut miles runAvg speedWind from/ knotsBaromVisibWave heightAir tempDewpointWater temp
2014-Dec-17 16:03N 66°23' E 011°58'713.4
2014-Dec-17 15:33N 66°29' E 012°05'1 1.1
2014-Dec-17 14:33N 66°30' E 012°06'5 5.1
2014-Dec-17 13:33N 66°32' E 012°18'10014.0
2014-Dec-17 06:25N 68°05' E 013°50'77 2.4
2014-Dec-15 22:22N 69°12' E 015°35'73 8.2
2014-Dec-15 13:31N 69°35' E 018°51'5 4.9
2014-Dec-15 12:33N 69°39' E 018°58'0 0.0
2014-Dec-15 11:33N 69°39' E 018°58'2 1.9
2014-Dec-15 10:33N 69°38' E 018°57'0 0.0
2014-Dec-15 09:33N 69°38' E 018°57'0 0.0
2014-Dec-15 08:33N 69°38' E 018°57'0 0.0
2014-Dec-15 07:33N 69°38' E 018°57'0 0.0
2014-Dec-15 06:33N 69°38' E 018°57'0 0.0
2014-Dec-15 05:33N 69°38' E 018°57'0 0.0
2014-Dec-15 04:33N 69°38' E 018°57'0 0.0
2014-Dec-15 03:33N 69°38' E 018°57'0 0.0
2014-Dec-15 02:33N 69°38' E 018°57'0 0.0
2014-Dec-15 01:33N 69°38' E 018°57'0 0.0
2014-Dec-15 00:33N 69°38' E 018°57'0 0.0
2014-Dec-14 23:33N 69°38' E 018°57'0 0.0
2014-Dec-14 22:33N 69°38' E 018°57'0 0.0
2014-Dec-14 21:33N 69°38' E 018°57'0 0.0
2014-Dec-14 20:33N 69°38' E 018°57'0 0.0
2014-Dec-14 19:33N 69°38' E 018°57'2 1.9
2014-Dec-14 18:34N 69°39' E 018°58'0 0.0
2014-Dec-14 17:33N 69°39' E 018°58'0 0.0
2014-Dec-14 16:33N 69°39' E 018°58'0 0.0
2014-Dec-14 15:33N 69°39' E 018°58'0 0.0
2014-Dec-14 14:33N 69°39' E 018°58'0 0.0
2014-Dec-14 13:33N 69°39' E 018°58'0 0.0
2014-Dec-14 12:33N 69°39' E 018°58'0 0.0
2014-Dec-14 11:33N 69°39' E 018°58'0 0.0
2014-Dec-14 10:33N 69°39' E 018°58'0 0.0
2014-Dec-14 09:33N 69°39' E 018°58'0 0.0
2014-Dec-14 08:33N 69°39' E 018°58'0 0.0
2014-Dec-14 07:33N 69°39' E 018°58'0 0.0
2014-Dec-14 06:33N 69°39' E 018°58'0 0.0
2014-Dec-14 05:33N 69°39' E 018°58'0 0.0
2014-Dec-14 04:33N 69°39' E 018°58'0 0.0
2014-Dec-14 03:33N 69°39' E 018°58'0 0.0
2014-Dec-14 02:33N 69°39' E 018°58'0 0.0
2014-Dec-14 01:33N 69°39' E 018°58'0 0.0
2014-Dec-14 00:33N 69°39' E 018°58'0 0.0
2014-Dec-13 23:33N 69°39' E 018°58'3 3.4
2014-Dec-13 22:34N 69°42' E 019°03'8313.7
2014-Dec-13 16:32N 70°28' E 022°25'1413.9
2014-Dec-13 15:33N 70°33' E 023°03'1313.3
2014-Dec-13 14:34N 70°38' E 023°40'0 0.1
2014-Dec-13 13:33N 70°38' E 023°40'  
2014-Dec-11 04:16N 70°44' E 023°36'6 8.1
2014-Dec-11 03:33N 70°38' E 023°40'1 1.1
2014-Dec-11 02:32N 70°38' E 023°36'1515.2
2014-Dec-11 01:33N 70°31' E 022°57'9114.6
2014-Dec-10 19:18N 69°45' E 019°05'6 8.3
2014-Dec-10 18:33N 69°39' E 018°58'2 1.9
2014-Dec-10 17:34N 69°38' E 018°57'155 6.7
2014-Dec-09 18:33N 67°42' E 014°15'1515.0
2014-Dec-09 17:33N 67°27' E 014°24'1413.8
2014-Dec-09 16:34N 67°15' E 014°11'1614.5
2014-Dec-09 15:25N 67°01' E 013°45'3013.9
2014-Dec-09 13:17N 66°36' E 013°04'1413.8
2014-Dec-09 12:17N 66°23' E 012°58'7014.1
2014-Dec-09 07:21N 65°18' E 011°59'1214.9
2014-Dec-09 06:34N 65°07' E 011°49'1414.3
2014-Dec-09 05:34N 64°56' E 011°26'1614.0
2014-Dec-09 04:26N 64°45' E 011°00'7610.9
2014-Dec-08 21:28N 63°40' E 009°29'  

Dump ship's entire track history